createdAt,value
2018-09-11T00:01:45.375Z,4.60
2018-09-11T00:04:13.542Z,4.60
2018-09-11T00:06:41.717Z,4.35
2018-09-11T00:09:11.814Z,4.72
2018-09-11T00:11:40.031Z,4.22
2018-09-11T00:14:08.182Z,4.80
2018-09-11T00:16:36.345Z,4.40
2018-09-11T00:19:04.563Z,5.17
2018-09-11T00:21:32.834Z,4.65
2018-09-11T00:24:01.073Z,4.80
2018-09-11T00:26:29.238Z,4.45
2018-09-11T00:28:57.394Z,4.10
2018-09-11T00:31:25.546Z,4.50
2018-09-11T00:33:53.709Z,4.70
2018-09-11T00:36:21.951Z,4.50
2018-09-11T00:38:50.121Z,4.10
2018-09-11T00:41:18.286Z,4.50
2018-09-11T00:43:46.445Z,4.80
2018-09-11T00:46:14.604Z,4.30
2018-09-11T00:48:42.766Z,4.65
2018-09-11T00:51:10.941Z,4.50
2018-09-11T00:53:39.090Z,4.30
2018-09-11T00:56:07.270Z,4.22
2018-09-11T00:58:35.448Z,4.47
2018-09-11T01:01:03.610Z,4.75
2018-09-11T01:03:31.766Z,3.90
2018-09-11T01:05:59.934Z,4.10
2018-09-11T01:08:28.106Z,4.10
2018-09-11T01:10:56.278Z,4.40
2018-09-11T01:13:24.469Z,4.00
2018-09-11T01:15:52.657Z,4.28
2018-09-11T01:18:20.829Z,4.20
2018-09-11T01:20:49.013Z,4.30
2018-09-11T01:23:17.193Z,3.80
2018-09-11T01:25:45.370Z,4.10
2018-09-11T01:28:13.546Z,4.20
2018-09-11T01:30:41.782Z,4.10
2018-09-11T01:33:09.968Z,4.37
2018-09-11T01:35:38.146Z,4.47
2018-09-11T01:38:06.600Z,4.33
2018-09-11T01:40:34.789Z,4.50
2018-09-11T01:43:02.985Z,4.55
2018-09-11T01:45:31.167Z,4.20
2018-09-11T01:47:59.326Z,4.42
2018-09-11T01:50:27.506Z,4.10
2018-09-11T01:52:55.677Z,4.42
2018-09-11T01:55:23.862Z,4.25
2018-09-11T01:57:52.062Z,4.35
2018-09-11T02:00:21.373Z,4.40
2018-09-11T02:02:49.553Z,4.10
2018-09-11T02:05:17.897Z,4.05
2018-09-11T02:07:46.063Z,4.20
2018-09-11T02:10:14.253Z,4.50
2018-09-11T02:12:42.426Z,3.92
2018-09-11T02:15:11.262Z,4.30
2018-09-11T02:17:39.866Z,4.03
2018-09-11T02:20:08.095Z,3.98
2018-09-11T02:22:36.249Z,4.28
2018-09-11T02:25:04.579Z,4.67
2018-09-11T02:27:32.829Z,4.50
2018-09-11T02:30:01.007Z,4.20
2018-09-11T02:32:29.194Z,4.40
2018-09-11T02:34:57.434Z,4.40
2018-09-11T02:37:25.643Z,4.42
2018-09-11T02:39:53.863Z,4.15
2018-09-11T02:42:22.067Z,4.37
2018-09-11T02:44:50.246Z,4.50
2018-09-11T02:47:18.439Z,4.27
2018-09-11T02:49:46.641Z,4.23
2018-09-11T02:52:14.839Z,4.50
2018-09-11T02:54:43.047Z,4.60
2018-09-11T02:57:11.276Z,4.20
2018-09-11T02:59:39.478Z,4.03
2018-09-11T03:02:07.693Z,4.60
2018-09-11T03:04:35.882Z,4.50
2018-09-11T03:07:04.082Z,4.35
2018-09-11T03:09:32.272Z,4.60
2018-09-11T03:12:00.473Z,4.70
2018-09-11T03:14:28.722Z,4.60
2018-09-11T03:16:56.931Z,5.08
2018-09-11T03:19:25.120Z,4.70
2018-09-11T03:21:53.313Z,4.80
2018-09-11T03:24:21.512Z,4.30
2018-09-11T03:26:49.711Z,4.40
2018-09-11T03:29:17.919Z,4.80
2018-09-11T03:31:46.134Z,4.80
2018-09-11T03:34:14.402Z,4.70
2018-09-11T03:36:42.566Z,5.10
2018-09-11T03:39:11.225Z,4.60
2018-09-11T03:41:39.405Z,4.80
2018-09-11T03:44:07.628Z,5.20
2018-09-11T03:46:35.773Z,5.00
2018-09-11T03:49:03.972Z,4.87
2018-09-11T03:51:32.130Z,5.47
2018-09-11T03:54:00.306Z,5.35
2018-09-11T03:56:28.543Z,5.25
2018-09-11T03:58:56.755Z,5.10
2018-09-11T04:01:24.958Z,5.03
2018-09-11T04:03:53.169Z,5.00
2018-09-11T04:06:21.365Z,5.50
2018-09-11T04:08:49.550Z,5.50
2018-09-11T04:11:17.767Z,5.00
2018-09-11T04:13:45.965Z,5.25
2018-09-11T04:16:14.161Z,5.12
2018-09-11T04:18:42.353Z,5.28
2018-09-11T04:21:10.553Z,5.10
2018-09-11T04:23:38.798Z,4.67
2018-09-11T04:26:07.193Z,5.00
2018-09-11T04:28:35.373Z,4.92
2018-09-11T04:31:03.590Z,5.30
2018-09-11T04:33:31.806Z,5.30
2018-09-11T04:35:59.998Z,5.70
2018-09-11T04:38:28.186Z,4.90
2018-09-11T04:40:56.443Z,4.80
2018-09-11T04:43:24.654Z,5.10
2018-09-11T04:45:52.850Z,5.10
2018-09-11T04:48:21.046Z,5.20
2018-09-11T04:50:49.230Z,5.50
2018-09-11T04:53:17.431Z,5.28
2018-09-11T04:55:45.610Z,5.60
2018-09-11T04:58:13.797Z,5.93
2018-09-11T05:00:41.991Z,5.78
2018-09-11T05:03:10.195Z,5.67
2018-09-11T05:05:38.394Z,5.60
2018-09-11T05:08:06.582Z,5.22
2018-09-11T05:10:34.757Z,5.35
2018-09-11T05:13:02.961Z,5.30
2018-09-11T05:15:31.143Z,4.97
2018-09-11T05:17:59.360Z,5.00
2018-09-11T05:20:27.554Z,5.55
2018-09-11T05:22:55.753Z,5.33
2018-09-11T05:25:23.937Z,5.17
2018-09-11T05:27:52.136Z,5.00
2018-09-11T05:30:20.321Z,5.57
2018-09-11T05:32:48.494Z,5.20
2018-09-11T05:35:16.674Z,5.60
2018-09-11T05:37:44.862Z,5.50
2018-09-11T05:40:13.044Z,5.50
2018-09-11T05:42:41.202Z,5.50
2018-09-11T05:45:10.295Z,5.47
2018-09-11T05:47:39.138Z,5.40
2018-09-11T05:50:07.315Z,5.70
2018-09-11T05:52:35.514Z,5.30
2018-09-11T05:55:03.719Z,5.80
2018-09-11T05:57:31.903Z,5.50
2018-09-11T06:00:00.074Z,5.70
2018-09-11T06:02:28.256Z,5.47
2018-09-11T06:04:56.418Z,5.50
2018-09-11T06:07:24.597Z,4.70
2018-09-11T06:09:52.761Z,5.45
2018-09-11T06:12:20.951Z,5.20
2018-09-11T06:14:49.165Z,4.80
2018-09-11T06:17:17.415Z,5.30
2018-09-11T06:19:45.902Z,5.37
2018-09-11T06:22:14.072Z,5.20
2018-09-11T06:24:42.244Z,5.30
2018-09-11T06:27:10.407Z,5.20
2018-09-11T06:29:38.591Z,5.83
2018-09-11T06:32:06.830Z,5.80
2018-09-11T06:34:35.029Z,6.10
2018-09-11T06:37:03.239Z,5.80
2018-09-11T06:39:31.452Z,6.00
2018-09-11T06:41:59.629Z,6.40
2018-09-11T06:44:27.831Z,5.55
2018-09-11T06:46:56.053Z,5.72
2018-09-11T06:49:24.262Z,5.20
2018-09-11T06:51:52.451Z,5.65
2018-09-11T06:54:20.654Z,5.67
2018-09-11T06:56:48.833Z,5.58
2018-09-11T06:59:17.070Z,6.10
2018-09-11T07:01:45.395Z,5.75
2018-09-11T07:04:13.566Z,5.70
2018-09-11T07:06:41.766Z,5.55
2018-09-11T07:09:10.871Z,5.73
2018-09-11T07:11:39.087Z,5.95
2018-09-11T07:14:07.445Z,5.45
2018-09-11T07:16:35.658Z,5.60
2018-09-11T07:19:03.870Z,5.70
2018-09-11T07:21:32.050Z,5.37
2018-09-11T07:24:00.275Z,5.67
2018-09-11T07:26:28.469Z,5.33
2018-09-11T07:28:56.683Z,5.30
2018-09-11T07:31:24.884Z,5.20
2018-09-11T07:33:53.089Z,5.62
2018-09-11T07:36:21.316Z,5.17
2018-09-11T07:38:49.478Z,4.70
2018-09-11T07:41:17.686Z,4.90
2018-09-11T07:43:45.906Z,5.25
2018-09-11T07:46:14.098Z,4.90
2018-09-11T07:48:42.289Z,5.03
2018-09-11T07:51:10.494Z,4.80
2018-09-11T07:53:38.705Z,4.65
2018-09-11T07:56:07.010Z,4.53
2018-09-11T07:58:35.210Z,4.70
2018-09-11T08:01:03.411Z,5.08
2018-09-11T08:03:31.615Z,5.28
2018-09-11T08:05:59.815Z,4.80
2018-09-11T08:08:28.062Z,4.67
2018-09-11T08:10:56.263Z,5.20
2018-09-11T08:13:24.467Z,4.90
2018-09-11T08:15:52.690Z,4.67
2018-09-11T08:18:20.905Z,4.83
2018-09-11T08:20:49.093Z,4.50
2018-09-11T08:23:17.298Z,4.37
2018-09-11T08:25:45.499Z,4.60
2018-09-11T08:28:13.710Z,4.67
2018-09-11T08:30:41.898Z,4.10
2018-09-11T08:33:10.095Z,4.33
2018-09-11T08:35:38.293Z,4.20
2018-09-11T08:38:06.478Z,4.65
2018-09-11T08:40:34.701Z,4.70
2018-09-11T08:43:02.884Z,4.42
2018-09-11T08:45:31.083Z,4.30
2018-09-11T08:47:59.274Z,3.98
2018-09-11T08:50:27.505Z,4.40
2018-09-11T08:52:55.698Z,4.30
2018-09-11T08:55:23.930Z,4.80
2018-09-11T08:57:52.113Z,4.50
2018-09-11T09:00:20.333Z,4.78
2018-09-11T09:02:48.551Z,4.55
2018-09-11T09:05:16.751Z,4.53
2018-09-11T09:07:44.942Z,4.50
2018-09-11T09:10:13.245Z,4.28
2018-09-11T09:12:41.408Z,4.65
2018-09-11T09:15:09.606Z,4.15
2018-09-11T09:17:37.802Z,4.00
2018-09-11T09:20:06.002Z,3.95
2018-09-11T09:22:34.218Z,3.60
2018-09-11T09:25:02.411Z,3.90
2018-09-11T09:27:30.628Z,3.60
2018-09-11T09:29:58.817Z,3.90
2018-09-11T09:32:27.020Z,4.20
2018-09-11T09:34:55.206Z,4.22
2018-09-11T09:37:23.370Z,3.53
2018-09-11T09:39:51.575Z,4.28
2018-09-11T09:42:19.742Z,4.22
2018-09-11T09:44:47.921Z,4.00
2018-09-11T09:47:16.091Z,4.15
2018-09-11T09:49:44.282Z,3.80
2018-09-11T09:52:12.510Z,4.00
2018-09-11T09:54:40.682Z,3.90
2018-09-11T09:57:08.922Z,3.80
2018-09-11T09:59:37.121Z,4.03
2018-09-11T10:02:09.557Z,3.90
2018-09-11T10:04:37.722Z,3.72
2018-09-11T10:07:05.894Z,3.67
2018-09-11T10:09:34.091Z,3.90
2018-09-11T10:12:02.246Z,4.05
2018-09-11T10:14:30.442Z,3.60
2018-09-11T10:16:58.643Z,3.92
2018-09-11T10:19:26.805Z,3.60
2018-09-11T10:21:54.981Z,3.70
2018-09-11T10:24:23.161Z,3.98
2018-09-11T10:26:51.342Z,3.80
2018-09-11T10:29:19.532Z,4.50
2018-09-11T10:31:47.694Z,3.72
2018-09-11T10:34:15.874Z,3.80
2018-09-11T10:36:44.057Z,3.80
2018-09-11T10:39:12.282Z,4.03
2018-09-11T10:41:40.474Z,4.20
2018-09-11T10:44:08.755Z,3.95
2018-09-11T10:46:36.911Z,3.83
2018-09-11T10:49:05.103Z,3.75
2018-09-11T10:51:33.292Z,3.35
2018-09-11T10:54:01.472Z,3.60
2018-09-11T10:56:29.822Z,3.83
2018-09-11T10:58:58.058Z,3.60
2018-09-11T11:01:26.230Z,3.37
2018-09-11T11:03:54.402Z,3.53
2018-09-11T11:06:22.595Z,3.70
2018-09-11T11:08:50.767Z,3.70
2018-09-11T11:11:19.936Z,3.80
2018-09-11T11:13:48.133Z,3.90
2018-09-11T11:16:16.305Z,3.62
2018-09-11T11:18:44.491Z,3.70
2018-09-11T11:21:12.675Z,3.87
2018-09-11T11:23:40.836Z,3.80
2018-09-11T11:26:09.031Z,4.00
2018-09-11T11:28:37.193Z,3.70
2018-09-11T11:31:05.381Z,3.55
2018-09-11T11:33:33.584Z,3.70
2018-09-11T11:36:01.857Z,3.83
2018-09-11T11:38:29.932Z,3.87
2018-09-11T11:40:58.101Z,3.55
2018-09-11T11:43:26.293Z,3.60
2018-09-11T11:45:54.467Z,4.10
2018-09-11T11:48:22.704Z,3.77
2018-09-11T11:50:50.809Z,3.83
2018-09-11T11:53:18.977Z,3.98
2018-09-11T11:55:47.150Z,3.80
2018-09-11T11:58:15.336Z,3.30
2018-09-11T12:00:43.505Z,3.80
2018-09-11T12:03:11.654Z,3.60
2018-09-11T12:05:39.818Z,3.70
2018-09-11T12:08:08.009Z,3.80
2018-09-11T12:10:36.195Z,3.62
2018-09-11T12:13:04.374Z,3.60
2018-09-11T12:15:32.575Z,3.60
2018-09-11T12:18:00.765Z,3.72
2018-09-11T12:20:28.938Z,3.72
2018-09-11T12:22:57.101Z,3.62
2018-09-11T12:25:25.297Z,3.50
2018-09-11T12:27:53.442Z,3.70
2018-09-11T12:30:21.642Z,3.60
2018-09-11T12:32:49.860Z,3.85
2018-09-11T12:35:18.055Z,3.75
2018-09-11T12:37:46.258Z,3.90
2018-09-11T12:40:14.688Z,3.30
2018-09-11T12:42:42.907Z,3.60
2018-09-11T12:45:11.101Z,4.00
2018-09-11T12:47:39.618Z,3.37
2018-09-11T12:50:07.570Z,3.70
2018-09-11T12:52:35.843Z,3.10
2018-09-11T12:55:03.997Z,3.00
2018-09-11T12:57:32.186Z,3.40
2018-09-11T13:00:00.370Z,2.97
2018-09-11T13:02:28.641Z,3.70
2018-09-11T13:04:56.758Z,3.40
2018-09-11T13:07:24.938Z,3.00
2018-09-11T13:09:53.137Z,3.20
2018-09-11T13:12:21.342Z,3.10
2018-09-11T13:14:49.534Z,3.50
2018-09-11T13:17:17.750Z,3.40
2018-09-11T13:19:45.960Z,3.37
2018-09-11T13:22:14.281Z,3.35
2018-09-11T13:24:42.475Z,3.33
2018-09-11T13:27:10.661Z,3.20
2018-09-11T13:29:38.854Z,3.05
2018-09-11T13:32:07.014Z,3.42
2018-09-11T13:34:35.170Z,3.40
2018-09-11T13:37:03.339Z,2.90
2018-09-11T13:39:31.494Z,3.10
2018-09-11T13:41:59.657Z,2.85
2018-09-11T13:44:27.871Z,3.30
2018-09-11T13:46:56.072Z,3.35
2018-09-11T13:49:24.376Z,3.20
2018-09-11T13:51:52.555Z,3.20
2018-09-11T13:54:20.726Z,3.00
2018-09-11T13:56:49.282Z,3.10
2018-09-11T13:59:17.470Z,3.60
2018-09-11T14:01:45.633Z,3.50
2018-09-11T14:04:13.817Z,3.20
2018-09-11T14:06:42.053Z,3.35
2018-09-11T14:09:12.629Z,3.27
2018-09-11T14:11:40.819Z,3.40
2018-09-11T14:14:09.243Z,3.62
2018-09-11T14:16:37.406Z,3.50
2018-09-11T14:19:05.818Z,3.50
2018-09-11T14:21:34.053Z,3.50
2018-09-11T14:24:02.226Z,3.50
2018-09-11T14:26:30.464Z,3.30
2018-09-11T14:28:58.640Z,3.40
2018-09-11T14:31:26.810Z,3.10
2018-09-11T14:33:54.998Z,3.40
2018-09-11T14:36:23.181Z,3.50
2018-09-11T14:38:51.368Z,3.30
2018-09-11T14:41:19.558Z,3.40
2018-09-11T14:43:47.734Z,3.30
2018-09-11T14:46:15.902Z,3.50
2018-09-11T14:48:44.126Z,3.33
2018-09-11T14:51:12.390Z,3.20
2018-09-11T14:53:40.569Z,3.00
2018-09-11T14:56:08.750Z,3.22
2018-09-11T14:58:36.939Z,2.97
2018-09-11T15:01:05.114Z,3.17
2018-09-11T15:03:33.286Z,3.30
2018-09-11T15:06:01.450Z,3.35
2018-09-11T15:08:29.655Z,3.60
2018-09-11T15:10:57.813Z,3.20
2018-09-11T15:13:25.998Z,3.12
2018-09-11T15:15:54.158Z,3.75
2018-09-11T15:18:22.321Z,2.83
2018-09-11T15:20:50.490Z,3.10
2018-09-11T15:23:18.682Z,3.00
2018-09-11T15:25:46.882Z,3.10
2018-09-11T15:28:15.042Z,3.33
2018-09-11T15:30:43.204Z,2.60
2018-09-11T15:33:11.382Z,2.60
2018-09-11T15:35:39.566Z,3.00
2018-09-11T15:38:07.734Z,2.90
2018-09-11T15:40:35.899Z,2.85
2018-09-11T15:43:04.056Z,3.27
2018-09-11T15:45:32.242Z,2.98
2018-09-11T15:48:00.419Z,4.43
2018-09-11T15:50:28.629Z,3.90
2018-09-11T15:52:56.859Z,3.50
2018-09-11T15:55:25.027Z,2.92
2018-09-11T15:57:53.226Z,2.80
2018-09-11T16:00:21.398Z,2.98
2018-09-11T16:02:49.587Z,3.10
2018-09-11T16:05:17.779Z,3.20
2018-09-11T16:07:45.942Z,3.10
2018-09-11T16:10:14.126Z,3.10
2018-09-11T16:12:42.279Z,3.08
2018-09-11T16:15:10.650Z,3.00
2018-09-11T16:17:38.634Z,3.05
2018-09-11T16:20:06.997Z,3.30
2018-09-11T16:22:35.212Z,2.93
2018-09-11T16:25:03.387Z,2.90
2018-09-11T16:27:31.557Z,3.08
2018-09-11T16:29:59.726Z,3.07
2018-09-11T16:32:27.936Z,3.10
2018-09-11T16:34:56.170Z,2.95
2018-09-11T16:37:24.363Z,3.40
2018-09-11T16:39:52.599Z,3.22
2018-09-11T16:42:20.807Z,3.40
2018-09-11T16:44:49.934Z,3.20
2018-09-11T16:47:18.185Z,3.83
2018-09-11T16:49:46.403Z,3.10
2018-09-11T16:52:14.579Z,3.40
2018-09-11T16:54:42.799Z,3.40
2018-09-11T16:57:10.997Z,3.60
2018-09-11T16:59:39.229Z,3.20
2018-09-11T17:02:07.547Z,3.43
2018-09-11T17:04:35.869Z,3.40
2018-09-11T17:07:04.095Z,2.98
2018-09-11T17:09:32.310Z,3.83
2018-09-11T17:12:00.502Z,4.00
2018-09-11T17:14:28.699Z,3.75
2018-09-11T17:16:56.902Z,3.60
2018-09-11T17:19:25.073Z,3.55
2018-09-11T17:21:53.297Z,3.80
2018-09-11T17:24:21.504Z,3.45
2018-09-11T17:26:49.707Z,3.42
2018-09-11T17:29:17.891Z,3.80
2018-09-11T17:31:46.122Z,3.80
2018-09-11T17:34:14.326Z,3.70
2018-09-11T17:36:42.547Z,3.60
2018-09-11T17:39:11.878Z,4.10
2018-09-11T17:41:40.699Z,4.00
2018-09-11T17:44:09.302Z,3.50
2018-09-11T17:46:37.799Z,3.90
2018-09-11T17:49:06.050Z,4.40
2018-09-11T17:51:34.334Z,4.20
2018-09-11T17:54:03.206Z,4.12
2018-09-11T17:56:31.441Z,4.08
2018-09-11T17:58:59.642Z,4.70
2018-09-11T18:01:27.862Z,4.30
2018-09-11T18:03:56.043Z,4.10
2018-09-11T18:06:24.261Z,3.87
2018-09-11T18:08:52.464Z,4.12
2018-09-11T18:11:20.671Z,4.37
2018-09-11T18:13:48.862Z,5.00
2018-09-11T18:16:17.077Z,4.60
2018-09-11T18:18:45.291Z,4.60
2018-09-11T18:21:13.515Z,4.20
2018-09-11T18:23:41.738Z,4.45
2018-09-11T18:26:09.993Z,4.53
2018-09-11T18:28:38.146Z,4.70
2018-09-11T18:31:06.325Z,4.42
2018-09-11T18:33:34.495Z,4.20
2018-09-11T18:36:02.670Z,4.37
2018-09-11T18:38:30.845Z,4.10
2018-09-11T18:40:59.013Z,4.73
2018-09-11T18:43:27.200Z,5.63
2018-09-11T18:45:55.393Z,5.00
2018-09-11T18:48:23.571Z,4.75
2018-09-11T18:50:51.750Z,5.17
2018-09-11T18:53:19.932Z,4.53
2018-09-11T18:55:48.611Z,5.10
2018-09-11T18:58:16.776Z,4.90
2018-09-11T19:00:44.962Z,5.15
2018-09-11T19:03:13.175Z,4.83
2018-09-11T19:05:41.331Z,4.80
2018-09-11T19:08:09.531Z,4.97
2018-09-11T19:10:37.696Z,4.80
2018-09-11T19:13:05.943Z,5.03
2018-09-11T19:15:34.142Z,5.03
2018-09-11T19:18:02.317Z,5.00
2018-09-11T19:20:30.550Z,4.87
2018-09-11T19:22:58.678Z,5.40
2018-09-11T19:25:26.855Z,4.83
2018-09-11T19:27:55.030Z,5.28
2018-09-11T19:30:23.193Z,5.70
2018-09-11T19:32:51.414Z,5.65
2018-09-11T19:35:19.642Z,4.58
2018-09-11T19:37:47.867Z,5.35
2018-09-11T19:40:16.055Z,5.33
2018-09-11T19:42:44.255Z,5.75
2018-09-11T19:45:12.454Z,5.60
2018-09-11T19:47:40.634Z,5.50
2018-09-11T19:50:08.906Z,5.92
2018-09-11T19:52:37.027Z,5.20
2018-09-11T19:55:05.310Z,5.25
2018-09-11T19:57:33.523Z,5.60
2018-09-11T20:00:01.785Z,5.57
2018-09-11T20:02:30.378Z,4.80
2018-09-11T20:04:58.592Z,5.70
2018-09-11T20:07:26.790Z,5.45
2018-09-11T20:09:55.043Z,5.12
2018-09-11T20:12:23.292Z,5.47
2018-09-11T20:14:51.508Z,5.92
2018-09-11T20:17:19.690Z,6.30
2018-09-11T20:19:47.910Z,5.37
2018-09-11T20:22:16.114Z,5.40
2018-09-11T20:24:44.310Z,5.50
2018-09-11T20:27:12.538Z,5.78
2018-09-11T20:29:40.739Z,5.33
2018-09-11T20:32:08.958Z,5.20
2018-09-11T20:34:37.142Z,5.10
2018-09-11T20:37:05.366Z,5.10
2018-09-11T20:39:33.566Z,4.97
2018-09-11T20:42:01.795Z,5.75
2018-09-11T20:44:29.984Z,6.00
2018-09-11T20:46:58.192Z,4.90
2018-09-11T20:49:26.377Z,5.87
2018-09-11T20:51:54.621Z,5.40
2018-09-11T20:54:22.779Z,5.40
2018-09-11T20:56:50.990Z,5.40
2018-09-11T20:59:19.185Z,5.83
2018-09-11T21:01:47.390Z,5.90
2018-09-11T21:04:15.588Z,5.37
2018-09-11T21:06:43.793Z,5.72
2018-09-11T21:09:12.010Z,5.30
2018-09-11T21:11:40.213Z,5.53
2018-09-11T21:14:08.446Z,5.10
2018-09-11T21:16:36.638Z,5.70
2018-09-11T21:19:04.831Z,5.27
2018-09-11T21:21:33.033Z,5.58
2018-09-11T21:24:01.332Z,5.20
2018-09-11T21:26:29.551Z,5.30
2018-09-11T21:28:57.762Z,5.40
2018-09-11T21:31:26.001Z,5.15
2018-09-11T21:33:54.250Z,5.45
2018-09-11T21:36:22.458Z,5.20
2018-09-11T21:38:50.663Z,5.40
2018-09-11T21:41:19.662Z,5.70
2018-09-11T21:43:47.878Z,5.20
2018-09-11T21:46:16.099Z,6.08
2018-09-11T21:48:44.282Z,5.20
2018-09-11T21:51:12.461Z,4.97
2018-09-11T21:53:40.658Z,5.58
2018-09-11T21:56:08.858Z,5.37
2018-09-11T21:58:37.049Z,5.50
2018-09-11T22:01:10.946Z,5.87
2018-09-11T22:03:39.127Z,5.30
2018-09-11T22:06:07.310Z,5.50
2018-09-11T22:08:35.521Z,5.35
2018-09-11T22:11:03.711Z,5.10
2018-09-11T22:13:31.937Z,5.20
2018-09-11T22:16:00.134Z,4.85
2018-09-11T22:18:28.362Z,5.50
2018-09-11T22:20:56.621Z,5.20
2018-09-11T22:23:24.880Z,5.70
2018-09-11T22:25:53.066Z,5.10
2018-09-11T22:28:21.310Z,5.70
2018-09-11T22:30:49.626Z,5.95
2018-09-11T22:33:17.854Z,5.30
2018-09-11T22:35:46.058Z,5.50
2018-09-11T22:38:14.269Z,5.80
2018-09-11T22:40:42.469Z,5.22
2018-09-11T22:43:10.704Z,5.20
2018-09-11T22:45:38.846Z,5.27
2018-09-11T22:48:07.038Z,5.50
2018-09-11T22:50:35.238Z,5.60
2018-09-11T22:53:03.446Z,5.40
2018-09-11T22:55:31.655Z,5.60
2018-09-11T22:57:59.858Z,5.55
2018-09-11T23:00:28.066Z,5.40
2018-09-11T23:02:56.262Z,5.60
2018-09-11T23:05:24.471Z,5.20
2018-09-11T23:07:52.681Z,6.30
2018-09-11T23:10:20.914Z,5.67
2018-09-11T23:12:49.117Z,5.78
2018-09-11T23:15:17.355Z,5.47
2018-09-11T23:17:45.530Z,5.95
2018-09-11T23:20:13.741Z,5.50
2018-09-11T23:22:41.927Z,5.70
2018-09-11T23:25:10.124Z,5.80
2018-09-11T23:27:38.321Z,5.80
2018-09-11T23:30:06.543Z,5.20
2018-09-11T23:32:34.742Z,6.00
2018-09-11T23:35:02.926Z,5.80
2018-09-11T23:37:31.130Z,6.50
2018-09-11T23:39:59.346Z,6.90
2018-09-11T23:42:27.537Z,5.67
2018-09-11T23:44:55.714Z,6.20
2018-09-11T23:47:23.914Z,6.33
2018-09-11T23:49:52.222Z,6.75
2018-09-11T23:52:20.424Z,5.75
2018-09-11T23:54:48.646Z,5.85
2018-09-11T23:57:16.830Z,6.10
2018-09-11T23:59:45.030Z,5.80
